createdAt,value
2018-05-11T00:01:08.868Z,51.70
2018-05-11T00:03:13.302Z,51.70
2018-05-11T00:05:17.020Z,51.80
2018-05-11T00:07:19.963Z,51.70
2018-05-11T00:09:22.922Z,51.90
2018-05-11T00:11:25.832Z,52.00
2018-05-11T00:13:29.578Z,52.00
2018-05-11T00:15:32.488Z,52.00
2018-05-11T00:17:35.402Z,51.90
2018-05-11T00:19:38.477Z,52.00
2018-05-11T00:21:42.904Z,52.10
2018-05-11T00:23:46.635Z,52.20
2018-05-11T00:25:49.559Z,52.20
2018-05-11T00:27:53.271Z,52.40
2018-05-11T00:29:57.741Z,52.40
2018-05-11T00:32:00.670Z,52.40
2018-05-11T00:34:03.618Z,52.40
2018-05-11T00:36:06.662Z,52.50
2018-05-11T00:38:10.357Z,52.70
2018-05-11T00:40:14.164Z,52.70
2018-05-11T00:42:17.845Z,52.80
2018-05-11T00:44:22.293Z,52.70
2018-05-11T00:46:25.231Z,52.70
2018-05-11T00:48:28.167Z,52.70
2018-05-11T00:50:31.883Z,52.80
2018-05-11T00:52:34.803Z,52.80
2018-05-11T00:54:37.755Z,52.80
2018-05-11T00:56:40.794Z,52.90
2018-05-11T00:58:44.527Z,53.00
2018-05-11T01:00:47.476Z,52.90
2018-05-11T01:02:51.265Z,53.40
2018-05-11T01:04:55.122Z,53.50
2018-05-11T01:06:58.035Z,53.40
2018-05-11T01:09:00.958Z,53.50
2018-05-11T01:11:03.910Z,53.70
2018-05-11T01:13:08.447Z,53.80
2018-05-11T01:15:12.147Z,54.00
2018-05-11T01:17:15.948Z,54.00
2018-05-11T01:19:19.635Z,54.00
2018-05-11T01:21:23.346Z,54.70
2018-05-11T01:23:27.040Z,54.00
2018-05-11T01:25:30.773Z,53.90
2018-05-11T01:27:33.739Z,53.90
2018-05-11T01:29:36.670Z,53.80
2018-05-11T01:31:39.625Z,53.80
2018-05-11T01:33:42.682Z,53.80
2018-05-11T01:35:45.623Z,53.90
2018-05-11T01:37:48.592Z,53.90
2018-05-11T01:39:51.682Z,53.80
2018-05-11T01:41:54.715Z,53.70
2018-05-11T01:43:58.393Z,53.70
2018-05-11T01:46:02.830Z,53.60
2018-05-11T01:48:06.538Z,53.60
2018-05-11T01:50:09.479Z,53.40
2018-05-11T01:52:12.431Z,53.50
2018-05-11T01:54:15.354Z,53.40
2018-05-11T01:56:18.278Z,53.50
2018-05-11T01:58:21.343Z,53.50
2018-05-11T02:00:25.019Z,53.40
2018-05-11T02:02:27.961Z,53.40
2018-05-11T02:04:30.918Z,53.40
2018-05-11T02:06:34.641Z,53.30
2018-05-11T02:08:37.571Z,53.30
2018-05-11T02:10:41.262Z,53.30
2018-05-11T02:12:45.725Z,53.10
2018-05-11T02:14:48.648Z,53.10
2018-05-11T02:16:51.598Z,53.00
2018-05-11T02:18:54.515Z,53.00
2018-05-11T02:20:57.538Z,52.90
2018-05-11T02:23:01.276Z,52.70
2018-05-11T02:25:04.198Z,52.70
2018-05-11T02:27:07.224Z,52.70
2018-05-11T02:29:10.158Z,52.60
2018-05-11T02:31:13.077Z,52.60
2018-05-11T02:33:16.034Z,52.50
2018-05-11T02:35:18.951Z,52.60
2018-05-11T02:37:21.903Z,52.50
2018-05-11T02:39:25.585Z,52.40
2018-05-11T02:41:30.035Z,52.50
2018-05-11T02:43:33.763Z,52.50
2018-05-11T02:45:36.684Z,52.40
2018-05-11T02:47:41.231Z,52.40
2018-05-11T02:49:45.032Z,52.30
2018-05-11T02:51:48.833Z,52.30
2018-05-11T02:53:52.636Z,52.30
2018-05-11T02:55:56.390Z,52.30
2018-05-11T02:57:59.421Z,52.80
2018-05-11T03:00:03.161Z,52.00
2018-05-11T03:02:06.082Z,52.00
2018-05-11T03:04:08.998Z,51.90
2018-05-11T03:06:11.946Z,52.00
2018-05-11T03:08:15.630Z,52.00
2018-05-11T03:10:18.817Z,52.00
2018-05-11T03:12:21.731Z,52.00
2018-05-11T03:14:25.440Z,51.50
2018-05-11T03:16:29.122Z,51.90
2018-05-11T03:18:32.116Z,51.90
2018-05-11T03:20:35.029Z,51.40
2018-05-11T03:22:37.951Z,51.90
2018-05-11T03:24:40.898Z,52.00
2018-05-11T03:26:43.811Z,52.00
2018-05-11T03:28:46.738Z,52.00
2018-05-11T03:30:50.454Z,52.00
2018-05-11T03:32:53.374Z,51.80
2018-05-11T03:34:56.355Z,51.80
2018-05-11T03:36:59.286Z,51.80
2018-05-11T03:39:02.219Z,51.80
2018-05-11T03:41:05.184Z,51.70
2018-05-11T03:43:08.120Z,51.80
2018-05-11T03:45:11.839Z,51.80
2018-05-11T03:47:14.779Z,51.70
2018-05-11T03:49:17.860Z,51.80
2018-05-11T03:51:22.406Z,51.80
2018-05-11T03:53:26.120Z,51.70
2018-05-11T03:55:29.075Z,51.60
2018-05-11T03:57:32.756Z,51.70
2018-05-11T03:59:35.715Z,51.70
2018-05-11T04:01:50.650Z,51.70
2018-05-11T04:04:05.323Z,51.80
2018-05-11T04:06:15.061Z,51.90
2018-05-11T04:08:30.779Z,52.10
2018-05-11T04:10:33.737Z,52.10
2018-05-11T04:12:36.667Z,52.00
2018-05-11T04:14:40.354Z,52.10
2018-05-11T04:16:43.324Z,52.10
2018-05-11T04:18:46.261Z,52.20
2018-05-11T04:20:49.299Z,52.30
2018-05-11T04:22:52.162Z,52.20
2018-05-11T04:24:55.091Z,52.20
2018-05-11T04:26:58.802Z,52.20
2018-05-11T04:29:01.753Z,52.20
2018-05-11T04:31:04.730Z,52.20
2018-05-11T04:33:08.423Z,52.20
2018-05-11T04:35:11.448Z,52.20
2018-05-11T04:37:14.435Z,52.20
2018-05-11T04:39:17.361Z,52.10
2018-05-11T04:41:20.291Z,52.20
2018-05-11T04:43:23.334Z,52.40
2018-05-11T04:45:26.352Z,52.50
2018-05-11T04:47:30.048Z,52.70
2018-05-11T04:49:33.767Z,52.70
2018-05-11T04:51:36.686Z,52.60
2018-05-11T04:53:39.663Z,52.70
2018-05-11T04:55:42.700Z,52.80
2018-05-11T04:57:46.382Z,53.20
2018-05-11T04:59:49.365Z,53.00
2018-05-11T05:01:52.372Z,53.20
2018-05-11T05:03:56.106Z,53.50
2018-05-11T05:05:59.156Z,53.40
2018-05-11T05:08:02.237Z,53.50
2018-05-11T05:10:05.945Z,53.80
2018-05-11T05:12:08.891Z,53.80
2018-05-11T05:14:13.355Z,54.20
2018-05-11T05:16:16.286Z,54.20
2018-05-11T05:18:19.247Z,54.20
2018-05-11T05:20:23.821Z,54.50
2018-05-11T05:22:27.506Z,54.60
2018-05-11T05:24:31.241Z,55.40
2018-05-11T05:26:34.178Z,54.70
2018-05-11T05:28:37.821Z,55.00
2018-05-11T05:30:40.734Z,55.10
2018-05-11T05:32:43.770Z,55.30
2018-05-11T05:34:47.487Z,55.50
2018-05-11T05:36:50.408Z,55.50
2018-05-11T05:38:53.358Z,55.60
2018-05-11T05:40:56.291Z,55.50
2018-05-11T05:42:59.222Z,55.60
2018-05-11T05:45:02.603Z,55.50
2018-05-11T05:47:05.544Z,55.30
2018-05-11T05:49:08.472Z,55.00
2018-05-11T05:51:11.539Z,54.80
2018-05-11T05:53:14.479Z,54.60
2018-05-11T05:55:17.406Z,54.40
2018-05-11T05:57:20.372Z,54.10
2018-05-11T05:59:24.066Z,53.90
2018-05-11T06:01:27.802Z,53.70
2018-05-11T06:03:30.742Z,53.60
2018-05-11T06:05:34.449Z,53.40
2018-05-11T06:07:38.176Z,53.40
2018-05-11T06:09:41.126Z,53.30
2018-05-11T06:11:44.855Z,53.10
2018-05-11T06:13:47.823Z,53.00
2018-05-11T06:15:51.633Z,52.60
2018-05-11T06:17:55.351Z,52.50
2018-05-11T06:19:58.279Z,52.40
2018-05-11T06:22:01.271Z,52.10
2018-05-11T06:24:05.103Z,52.00
2018-05-11T06:26:08.904Z,52.00
2018-05-11T06:28:12.587Z,51.80
2018-05-11T06:30:16.299Z,51.90
2018-05-11T06:32:20.019Z,51.70
2018-05-11T06:34:22.955Z,51.60
2018-05-11T06:36:27.415Z,51.30
2018-05-11T06:38:30.362Z,51.10
2018-05-11T06:40:34.994Z,50.80
2018-05-11T06:42:37.896Z,50.70
2018-05-11T06:44:40.861Z,50.60
2018-05-11T06:46:44.575Z,50.50
2018-05-11T06:48:48.372Z,50.50
2018-05-11T06:50:52.113Z,50.40
2018-05-11T06:52:55.056Z,50.40
2018-05-11T06:54:58.857Z,50.10
2018-05-11T06:57:02.574Z,50.00
2018-05-11T06:59:05.497Z,49.90
2018-05-11T07:01:08.458Z,49.70
2018-05-11T07:03:11.505Z,49.60
2018-05-11T07:05:15.215Z,49.40
2018-05-11T07:07:18.175Z,49.40
2018-05-11T07:09:21.962Z,49.50
2018-05-11T07:11:24.917Z,49.40
2018-05-11T07:13:27.852Z,49.60
2018-05-11T07:15:31.539Z,49.90
2018-05-11T07:17:35.356Z,49.80
2018-05-11T07:19:39.039Z,49.90
2018-05-11T07:21:42.000Z,49.90
2018-05-11T07:23:44.936Z,49.80
2018-05-11T07:25:47.888Z,49.80
2018-05-11T07:27:50.822Z,49.80
2018-05-11T07:29:53.783Z,49.80
2018-05-11T07:31:56.850Z,49.60
2018-05-11T07:33:59.786Z,49.60
2018-05-11T07:36:02.718Z,49.90
2018-05-11T07:38:06.429Z,49.80
2018-05-11T07:40:09.351Z,49.70
2018-05-11T07:42:12.308Z,49.40
2018-05-11T07:44:15.231Z,49.20
2018-05-11T07:46:18.179Z,49.20
2018-05-11T07:48:21.142Z,49.00
2018-05-11T07:50:24.074Z,49.00
2018-05-11T07:52:27.091Z,49.10
2018-05-11T07:54:30.033Z,49.10
2018-05-11T07:56:32.990Z,49.10
2018-05-11T07:58:35.946Z,48.80
2018-05-11T08:00:38.878Z,48.80
2018-05-11T08:02:43.439Z,49.00
2018-05-11T08:04:46.554Z,48.90
2018-05-11T08:06:49.611Z,48.90
2018-05-11T08:08:53.326Z,49.10
2018-05-11T08:10:56.270Z,49.10
2018-05-11T08:13:00.741Z,49.10
2018-05-11T08:15:03.674Z,49.10
2018-05-11T08:17:07.497Z,49.20
2018-05-11T08:19:11.194Z,49.00
2018-05-11T08:21:14.885Z,48.90
2018-05-11T08:23:18.707Z,48.90
2018-05-11T08:25:21.643Z,48.80
2018-05-11T08:27:24.602Z,48.80
2018-05-11T08:29:27.648Z,48.70
2018-05-11T08:31:31.366Z,48.30
2018-05-11T08:33:34.309Z,48.20
2018-05-11T08:35:38.007Z,48.40
2018-05-11T08:37:42.480Z,47.90
2018-05-11T08:39:45.413Z,47.80
2018-05-11T08:41:48.415Z,47.80
2018-05-11T08:43:52.106Z,47.70
2018-05-11T08:45:55.803Z,47.40
2018-05-11T08:47:59.524Z,47.20
2018-05-11T08:50:03.421Z,47.30
2018-05-11T08:52:07.134Z,47.30
2018-05-11T08:54:10.092Z,47.20
2018-05-11T08:56:13.799Z,47.10
2018-05-11T08:58:17.562Z,47.10
2018-05-11T09:00:20.515Z,47.10
2018-05-11T09:02:23.474Z,47.00
2018-05-11T09:04:26.431Z,46.60
2018-05-11T09:06:30.140Z,46.40
2018-05-11T09:08:33.889Z,46.40
2018-05-11T09:10:36.823Z,46.30
2018-05-11T09:12:40.738Z,46.30
2018-05-11T09:14:44.434Z,46.20
2018-05-11T09:16:48.160Z,46.20
2018-05-11T09:18:51.140Z,46.10
2018-05-11T09:20:54.083Z,45.90
2018-05-11T09:22:57.905Z,45.80
2018-05-11T09:25:00.893Z,45.70
2018-05-11T09:27:03.838Z,45.90
2018-05-11T09:29:06.855Z,45.80
2018-05-11T09:31:10.586Z,45.40
2018-05-11T09:33:13.522Z,45.30
2018-05-11T09:35:17.547Z,45.30
2018-05-11T09:37:20.558Z,45.30
2018-05-11T09:39:23.536Z,45.40
2018-05-11T09:41:26.476Z,45.50
2018-05-11T09:43:30.211Z,44.90
2018-05-11T09:45:33.179Z,44.90
2018-05-11T09:47:36.114Z,44.70
2018-05-11T09:49:39.088Z,44.50
2018-05-11T09:51:42.068Z,44.50
2018-05-11T09:53:45.111Z,44.40
2018-05-11T09:55:48.079Z,44.00
2018-05-11T09:57:51.771Z,44.40
2018-05-11T09:59:54.754Z,44.00
2018-05-11T10:01:57.737Z,44.00
2018-05-11T10:04:02.195Z,44.40
2018-05-11T10:06:05.142Z,44.50
2018-05-11T10:08:08.852Z,45.60
2018-05-11T10:10:11.827Z,45.60
2018-05-11T10:12:15.519Z,44.30
2018-05-11T10:14:19.236Z,43.90
2018-05-11T10:16:22.963Z,43.70
2018-05-11T10:18:26.344Z,43.60
2018-05-11T10:20:29.400Z,43.30
2018-05-11T10:22:33.099Z,43.20
2018-05-11T10:24:36.798Z,43.80
2018-05-11T10:26:40.615Z,44.40
2018-05-11T10:28:44.383Z,43.80
2018-05-11T10:30:47.300Z,43.80
2018-05-11T10:32:51.038Z,44.80
2018-05-11T10:34:54.734Z,45.60
2018-05-11T10:36:57.712Z,45.40
2018-05-11T10:39:00.767Z,45.70
2018-05-11T10:41:03.733Z,45.20
2018-05-11T10:43:07.468Z,44.70
2018-05-11T10:45:10.401Z,44.60
2018-05-11T10:47:13.342Z,44.80
2018-05-11T10:49:16.304Z,45.50
2018-05-11T10:51:20.510Z,45.20
2018-05-11T10:53:23.538Z,45.10
2018-05-11T10:55:26.474Z,44.80
2018-05-11T10:57:30.203Z,45.50
2018-05-11T10:59:33.130Z,45.50
2018-05-11T11:01:36.051Z,46.10
2018-05-11T11:03:39.123Z,46.30
2018-05-11T11:05:42.849Z,45.50
2018-05-11T11:07:45.864Z,45.40
2018-05-11T11:09:48.892Z,45.50
2018-05-11T11:11:52.602Z,44.30
2018-05-11T11:13:55.574Z,44.20
2018-05-11T11:15:59.275Z,44.40
2018-05-11T11:18:02.245Z,44.40
2018-05-11T11:20:05.985Z,45.20
2018-05-11T11:22:08.918Z,45.20
2018-05-11T11:24:12.667Z,44.80
2018-05-11T11:26:15.603Z,44.80
2018-05-11T11:28:19.388Z,43.30
2018-05-11T11:30:22.330Z,43.40
2018-05-11T11:32:25.398Z,43.60
2018-05-11T11:34:28.406Z,44.30
2018-05-11T11:36:32.083Z,45.10
2018-05-11T11:38:35.060Z,45.00
2018-05-11T11:40:38.859Z,43.90
2018-05-11T11:42:42.663Z,43.30
2018-05-11T11:44:46.463Z,43.30
2018-05-11T11:46:50.171Z,43.00
2018-05-11T11:48:53.166Z,42.90
2018-05-11T11:50:56.101Z,43.00
2018-05-11T11:52:59.039Z,42.90
2018-05-11T11:55:01.993Z,42.80
2018-05-11T11:57:04.958Z,42.70
2018-05-11T11:59:08.386Z,42.70
2018-05-11T12:01:11.328Z,42.80
2018-05-11T12:03:15.060Z,42.90
2018-05-11T12:05:18.853Z,42.80
2018-05-11T12:07:21.803Z,42.80
2018-05-11T12:09:26.266Z,42.40
2018-05-11T12:11:29.196Z,42.30
2018-05-11T12:13:32.161Z,42.70
2018-05-11T12:15:35.101Z,42.90
2018-05-11T12:17:39.626Z,43.20
2018-05-11T12:19:42.571Z,43.10
2018-05-11T12:21:47.120Z,43.30
2018-05-11T12:23:50.835Z,43.80
2018-05-11T12:25:53.758Z,43.70
2018-05-11T12:27:56.754Z,44.10
2018-05-11T12:29:59.678Z,43.90
2018-05-11T12:32:02.604Z,43.20
2018-05-11T12:34:05.735Z,42.70
2018-05-11T12:36:09.421Z,42.90
2018-05-11T12:38:13.237Z,43.20
2018-05-11T12:40:16.924Z,43.30
2018-05-11T12:42:19.855Z,43.30
2018-05-11T12:44:22.903Z,42.90
2018-05-11T12:46:26.582Z,42.30
2018-05-11T12:48:29.587Z,42.20
2018-05-11T12:50:33.306Z,42.40
2018-05-11T12:52:36.244Z,42.20
2018-05-11T12:54:40.787Z,42.90
2018-05-11T12:56:44.472Z,42.50
2018-05-11T12:58:48.296Z,41.60
2018-05-11T13:00:51.239Z,42.00
2018-05-11T13:02:54.182Z,41.60
2018-05-11T13:04:57.105Z,41.40
2018-05-11T13:07:01.557Z,42.20
2018-05-11T13:09:06.146Z,42.70
2018-05-11T13:11:10.591Z,43.20
2018-05-11T13:13:14.307Z,42.70
2018-05-11T13:15:17.306Z,42.60
2018-05-11T13:17:21.096Z,43.00
2018-05-11T13:19:25.308Z,43.60
2018-05-11T13:21:28.245Z,43.60
2018-05-11T13:23:31.174Z,43.80
2018-05-11T13:25:34.236Z,43.50
2018-05-11T13:27:38.058Z,42.30
2018-05-11T13:29:41.945Z,41.80
2018-05-11T13:31:45.659Z,42.10
2018-05-11T13:33:48.586Z,42.10
2018-05-11T13:35:53.034Z,42.40
2018-05-11T13:37:56.756Z,42.70
2018-05-11T13:39:59.677Z,42.60
2018-05-11T13:42:02.697Z,42.70
2018-05-11T13:44:05.693Z,43.10
2018-05-11T13:46:09.387Z,43.00
2018-05-11T13:48:13.140Z,43.20
2018-05-11T13:50:16.163Z,43.00
2018-05-11T13:52:19.160Z,42.60
2018-05-11T13:54:22.850Z,41.10
2018-05-11T13:56:26.724Z,40.80
2018-05-11T13:58:29.611Z,40.80
2018-05-11T14:00:32.566Z,40.70
2018-05-11T14:02:35.484Z,40.30
2018-05-11T14:04:38.584Z,40.30
2018-05-11T14:06:42.499Z,40.90
2018-05-11T14:08:46.231Z,40.20
2018-05-11T14:10:49.178Z,40.10
2018-05-11T14:12:53.291Z,40.00
2018-05-11T14:14:56.986Z,40.20
2018-05-11T14:17:00.675Z,39.80
2018-05-11T14:19:05.163Z,39.60
2018-05-11T14:21:08.083Z,39.50
2018-05-11T14:23:11.807Z,39.20
2018-05-11T14:25:14.739Z,39.10
2018-05-11T14:27:17.665Z,39.30
2018-05-11T14:29:20.655Z,39.40
2018-05-11T14:31:23.604Z,39.40
2018-05-11T14:33:27.423Z,38.90
2018-05-11T14:35:31.122Z,39.10
2018-05-11T14:37:34.806Z,39.20
2018-05-11T14:39:38.539Z,39.40
2018-05-11T14:41:41.468Z,38.90
2018-05-11T14:43:44.438Z,38.70
2018-05-11T14:45:47.393Z,38.80
2018-05-11T14:47:50.479Z,39.50
2018-05-11T14:49:54.282Z,39.00
2018-05-11T14:51:57.258Z,38.90
2018-05-11T14:54:00.207Z,39.00
2018-05-11T14:56:03.127Z,39.20
2018-05-11T14:58:06.103Z,39.00
2018-05-11T15:00:09.265Z,38.60
2018-05-11T15:02:13.080Z,38.90
2018-05-11T15:04:16.815Z,38.90
2018-05-11T15:06:19.743Z,38.80
2018-05-11T15:08:23.464Z,38.70
2018-05-11T15:10:26.402Z,38.60
2018-05-11T15:12:29.334Z,38.40
2018-05-11T15:14:32.288Z,38.20
2018-05-11T15:16:35.984Z,38.80
2018-05-11T15:18:38.936Z,38.50
2018-05-11T15:20:41.876Z,38.40
2018-05-11T15:22:44.805Z,38.20
2018-05-11T15:24:47.762Z,38.40
2018-05-11T15:26:50.719Z,39.00
2018-05-11T15:28:54.431Z,39.00
2018-05-11T15:30:58.220Z,38.80
2018-05-11T15:33:01.219Z,38.90
2018-05-11T15:35:04.186Z,38.90
2018-05-11T15:37:07.862Z,39.20
2018-05-11T15:39:12.290Z,39.10
2018-05-11T15:41:16.027Z,39.40
2018-05-11T15:43:18.946Z,39.10
2018-05-11T15:45:21.894Z,39.30
2018-05-11T15:47:24.816Z,39.60
2018-05-11T15:49:27.772Z,39.20
2018-05-11T15:51:30.746Z,38.80
2018-05-11T15:53:33.675Z,38.60
2018-05-11T15:55:37.402Z,38.50
2018-05-11T15:57:41.091Z,38.40
2018-05-11T15:59:44.893Z,38.30
2018-05-11T16:01:48.698Z,38.10
2018-05-11T16:03:52.396Z,38.20
2018-05-11T16:05:56.154Z,38.50
2018-05-11T16:07:59.074Z,38.30
2018-05-11T16:10:02.779Z,38.70
2018-05-11T16:12:06.462Z,38.10
2018-05-11T16:14:10.163Z,37.90
2018-05-11T16:16:13.138Z,37.90
2018-05-11T16:18:16.122Z,37.80
2018-05-11T16:20:19.083Z,37.80
2018-05-11T16:22:22.110Z,37.90
2018-05-11T16:24:25.791Z,38.20
2018-05-11T16:26:28.743Z,38.20
2018-05-11T16:28:31.656Z,38.20
2018-05-11T16:30:34.616Z,38.10
2018-05-11T16:32:37.567Z,38.00
2018-05-11T16:34:40.643Z,37.80
2018-05-11T16:36:43.559Z,37.50
2018-05-11T16:38:46.502Z,37.70
2018-05-11T16:40:49.468Z,37.90
2018-05-11T16:42:52.381Z,37.90
2018-05-11T16:44:55.304Z,37.80
2018-05-11T16:46:58.283Z,38.20
2018-05-11T16:49:01.208Z,38.50
2018-05-11T16:51:04.193Z,38.40
2018-05-11T16:53:07.126Z,38.50
2018-05-11T16:55:10.073Z,38.60
2018-05-11T16:57:13.128Z,38.60
2018-05-11T16:59:16.981Z,38.80
2018-05-11T17:01:20.015Z,38.80
2018-05-11T17:03:22.999Z,38.90
2018-05-11T17:05:26.802Z,39.00
2018-05-11T17:07:30.556Z,39.00
2018-05-11T17:09:33.498Z,38.90
2018-05-11T17:11:36.471Z,38.70
2018-05-11T17:13:40.291Z,38.60
2018-05-11T17:15:43.219Z,38.60
2018-05-11T17:17:46.178Z,38.80
2018-05-11T17:19:49.102Z,38.90
2018-05-11T17:21:52.923Z,39.30
2018-05-11T17:23:55.880Z,39.20
2018-05-11T17:26:00.345Z,39.10
2018-05-11T17:28:03.266Z,39.00
2018-05-11T17:30:06.336Z,38.90
2018-05-11T17:32:09.267Z,39.00
2018-05-11T17:34:12.943Z,39.10
2018-05-11T17:36:15.900Z,39.10
2018-05-11T17:38:18.823Z,39.10
2018-05-11T17:40:22.513Z,39.20
2018-05-11T17:42:26.233Z,39.30
2018-05-11T17:44:29.910Z,39.40
2018-05-11T17:46:34.367Z,39.40
2018-05-11T17:48:37.313Z,39.40
2018-05-11T17:50:40.227Z,39.40
2018-05-11T17:52:43.178Z,39.50
2018-05-11T17:54:47.609Z,39.50
2018-05-11T17:56:51.316Z,39.60
2018-05-11T17:58:55.007Z,39.50
2018-05-11T18:00:58.698Z,39.70
2018-05-11T18:03:02.440Z,39.70
2018-05-11T18:05:05.367Z,39.60
2018-05-11T18:07:09.828Z,39.70
2018-05-11T18:09:12.778Z,39.70
2018-05-11T18:11:15.807Z,39.80
2018-05-11T18:13:18.729Z,39.90
2018-05-11T18:15:21.666Z,40.60
2018-05-11T18:17:24.615Z,40.10
2018-05-11T18:19:28.302Z,40.10
2018-05-11T18:21:32.046Z,40.20
2018-05-11T18:23:35.025Z,40.20
2018-05-11T18:25:37.988Z,40.20
2018-05-11T18:27:41.729Z,40.30
2018-05-11T18:29:44.772Z,40.30
2018-05-11T18:31:47.791Z,40.50
2018-05-11T18:33:50.779Z,40.50
2018-05-11T18:35:53.696Z,40.50
2018-05-11T18:37:56.662Z,40.50
2018-05-11T18:39:59.687Z,40.60
2018-05-11T18:42:03.622Z,40.80
2018-05-11T18:44:06.542Z,40.80
2018-05-11T18:46:09.559Z,40.90
2018-05-11T18:48:12.667Z,41.00
2018-05-11T18:50:15.734Z,41.10
2018-05-11T18:52:18.736Z,41.10
2018-05-11T18:54:22.225Z,41.20
2018-05-11T18:56:24.986Z,41.40
2018-05-11T18:58:28.897Z,41.50
2018-05-11T19:00:32.752Z,41.70
2018-05-11T19:02:35.718Z,41.60
2018-05-11T19:04:38.743Z,41.80
2018-05-11T19:06:41.876Z,42.00
2018-05-11T19:08:44.935Z,42.10
2018-05-11T19:10:48.003Z,42.30
2018-05-11T19:12:51.825Z,42.50
2018-05-11T19:14:55.217Z,42.40
2018-05-11T19:16:59.336Z,42.60
2018-05-11T19:19:03.022Z,42.60
2018-05-11T19:21:06.832Z,42.80
2018-05-11T19:23:10.624Z,42.80
2018-05-11T19:25:13.718Z,42.70
2018-05-11T19:27:16.796Z,42.80
2018-05-11T19:29:19.769Z,43.00
2018-05-11T19:31:22.801Z,43.00
2018-05-11T19:33:25.800Z,43.10
2018-05-11T19:35:28.890Z,43.00
2018-05-11T19:37:32.087Z,43.10
2018-05-11T19:39:35.035Z,43.10
2018-05-11T19:41:37.987Z,43.10
2018-05-11T19:43:41.786Z,43.30
2018-05-11T19:45:45.897Z,43.30
2018-05-11T19:47:49.977Z,43.30
2018-05-11T19:49:53.090Z,43.30
2018-05-11T19:51:56.127Z,43.40
2018-05-11T19:54:00.598Z,43.50
2018-05-11T19:56:04.390Z,43.60
2018-05-11T19:58:08.308Z,43.70
2018-05-11T20:00:12.020Z,43.60
2018-05-11T20:02:15.130Z,43.60
2018-05-11T20:04:18.412Z,43.70
2018-05-11T20:06:21.705Z,43.60
2018-05-11T20:08:24.749Z,43.70
2018-05-11T20:10:28.656Z,43.90
2018-05-11T20:12:32.459Z,43.90
2018-05-11T20:14:36.290Z,44.00
2018-05-11T20:16:39.364Z,44.00
2018-05-11T20:18:42.639Z,44.00
2018-05-11T20:20:45.752Z,44.10
2018-05-11T20:22:48.769Z,44.10
2018-05-11T20:24:51.842Z,44.20
2018-05-11T20:26:54.887Z,44.30
2018-05-11T20:28:58.072Z,44.40
2018-05-11T20:31:01.856Z,44.60
2018-05-11T20:33:05.674Z,44.60
2018-05-11T20:35:08.802Z,44.60
2018-05-11T20:37:11.910Z,44.60
2018-05-11T20:39:14.956Z,44.70
2018-05-11T20:41:17.983Z,44.70
2018-05-11T20:43:21.126Z,44.70
2018-05-11T20:45:24.138Z,44.80
2018-05-11T20:47:28.186Z,45.50
2018-05-11T20:49:31.294Z,44.80
2018-05-11T20:51:34.315Z,44.90
2018-05-11T20:53:37.543Z,45.00
2018-05-11T20:55:41.344Z,45.10
2018-05-11T20:57:45.364Z,45.20
2018-05-11T20:59:48.230Z,45.20
2018-05-11T21:01:51.932Z,45.20
2018-05-11T21:03:55.666Z,45.30
2018-05-11T21:05:58.598Z,45.20
2018-05-11T21:08:02.323Z,46.00
2018-05-11T21:10:06.082Z,45.30
2018-05-11T21:12:10.574Z,45.30
2018-05-11T21:14:13.491Z,45.30
2018-05-11T21:16:16.426Z,45.40
2018-05-11T21:18:19.485Z,45.40
2018-05-11T21:20:23.191Z,45.60
2018-05-11T21:22:26.142Z,45.50
2018-05-11T21:24:30.605Z,45.60
2018-05-11T21:26:34.270Z,45.60
2018-05-11T21:28:37.994Z,45.70
2018-05-11T21:30:40.941Z,45.70
2018-05-11T21:32:43.977Z,46.30
2018-05-11T21:34:46.894Z,45.80
2018-05-11T21:36:49.819Z,45.80
2018-05-11T21:38:53.554Z,45.90
2018-05-11T21:40:56.582Z,45.80
2018-05-11T21:43:00.239Z,46.00
2018-05-11T21:45:03.302Z,45.90
2018-05-11T21:47:06.232Z,46.00
2018-05-11T21:49:09.178Z,46.10
2018-05-11T21:51:12.090Z,46.20
2018-05-11T21:53:15.040Z,46.20
2018-05-11T21:55:18.002Z,46.30
2018-05-11T21:57:21.001Z,46.40
2018-05-11T21:59:24.649Z,46.60
2018-05-11T22:01:27.575Z,46.50
2018-05-11T22:03:30.543Z,46.50
2018-05-11T22:05:34.236Z,46.70
2018-05-11T22:07:37.963Z,46.70
2018-05-11T22:09:40.880Z,46.70
2018-05-11T22:11:43.903Z,46.70
2018-05-11T22:13:48.347Z,46.80
2018-05-11T22:15:51.274Z,46.90
2018-05-11T22:17:54.302Z,47.60
2018-05-11T22:19:57.226Z,47.00
2018-05-11T22:22:00.163Z,47.10
2018-05-11T22:24:03.218Z,47.10
2018-05-11T22:26:06.919Z,46.70
2018-05-11T22:28:10.643Z,47.40
2018-05-11T22:30:13.615Z,47.30
2018-05-11T22:32:17.316Z,47.40
2018-05-11T22:34:21.038Z,48.20
2018-05-11T22:36:23.982Z,47.30
2018-05-11T22:38:27.672Z,48.20
2018-05-11T22:40:30.643Z,47.50
2018-05-11T22:42:33.665Z,47.60
2018-05-11T22:44:37.467Z,47.80
2018-05-11T22:46:41.269Z,47.80
2018-05-11T22:48:44.955Z,47.90
2018-05-11T22:50:48.695Z,47.90
2018-05-11T22:52:51.630Z,47.80
2018-05-11T22:54:55.334Z,48.10
2018-05-11T22:56:59.071Z,48.20
2018-05-11T22:59:02.012Z,48.10
2018-05-11T23:01:04.928Z,48.20
2018-05-11T23:03:08.722Z,49.10
2018-05-11T23:05:12.423Z,48.50
2018-05-11T23:07:16.098Z,48.50
2018-05-11T23:09:19.043Z,48.40
2018-05-11T23:11:21.981Z,48.40
2018-05-11T23:13:25.695Z,48.50
2018-05-11T23:15:28.635Z,48.50
2018-05-11T23:17:31.647Z,48.50
2018-05-11T23:19:35.387Z,48.60
2018-05-11T23:21:38.312Z,48.50
2018-05-11T23:23:42.765Z,48.60
2018-05-11T23:25:45.686Z,48.60
2018-05-11T23:27:48.719Z,48.60
2018-05-11T23:29:51.695Z,48.60
2018-05-11T23:31:55.385Z,48.80
2018-05-11T23:33:59.197Z,48.70
2018-05-11T23:36:02.885Z,48.80
2018-05-11T23:38:06.699Z,48.80
2018-05-11T23:40:10.393Z,48.80
2018-05-11T23:42:14.105Z,48.80
2018-05-11T23:44:17.822Z,48.80
2018-05-11T23:46:20.747Z,48.80
2018-05-11T23:48:23.711Z,48.80
2018-05-11T23:50:26.747Z,48.80
2018-05-11T23:52:30.434Z,48.80
2018-05-11T23:54:34.251Z,48.80
2018-05-11T23:56:38.052Z,48.90
2018-05-11T23:58:41.062Z,48.80
